Time;durP1;ratioP1;P1;durP2;ratioP2;P2;SDS_P1;SDS_P2;PMS_P1;PMS_P2;Temp;Humidity;BMP_temperature;BMP_pressure;BME280_temperature;BME280_humidity;BME280_pressure;Samples;Min_cycle;Max_cycle;Signal;HPM_P1;HPM_P2
2021/05/19 00:06:24;;;;;;;4.83;0.77;;;9.20;99.90;;;;;;21093599;28;20123;-79
2021/05/19 00:16:25;;;;;;;7.00;1.30;;;9.20;99.90;;;;;;21072697;28;20486;-78
2021/05/19 00:26:26;;;;;;;1.73;0.83;;;9.10;99.90;;;;;;21082340;28;20028;-80
2021/05/19 00:36:27;;;;;;;2.47;0.87;;;8.90;99.90;;;;;;21099939;28;20032;-80
2021/05/19 00:46:28;;;;;;;2.20;0.80;;;9.20;99.90;;;;;;21080996;28;20067;-81
2021/05/19 00:56:29;;;;;;;3.23;0.97;;;9.30;99.90;;;;;;21096537;28;20093;-80
2021/05/19 01:06:55;;;;;;;3.93;0.93;;;9.20;99.90;;;;;;21097509;28;20042;-80
2021/05/19 01:16:58;;;;;;;3.55;1.48;;;9.00;99.90;;;;;;21096927;28;20024;-79
2021/05/19 01:26:59;;;;;;;3.73;1.37;;;8.80;99.90;;;;;;21098013;28;20028;-81
2021/05/19 01:37:00;;;;;;;4.07;1.40;;;8.80;99.90;;;;;;21095339;28;20038;-81
2021/05/19 01:47:02;;;;;;;1.90;1.20;;;8.80;99.90;;;;;;21098576;28;20029;-79
2021/05/19 01:57:07;;;;;;;11.80;2.00;;;8.80;99.90;;;;;;21114865;28;20038;-79
2021/05/19 02:07:08;;;;;;;3.38;1.77;;;8.70;99.90;;;;;;21112507;28;20110;-79
2021/05/19 02:17:14;;;;;;;6.60;1.70;;;8.70;99.90;;;;;;21109359;28;20088;-80
2021/05/19 02:27:17;;;;;;;3.92;1.27;;;8.70;99.90;;;;;;21110099;28;20032;-81
2021/05/19 02:37:18;;;;;;;2.53;1.43;;;8.70;99.90;;;;;;21109668;28;20035;-81
2021/05/19 02:47:20;;;;;;;;;;;8.60;99.90;;;;;;21105660;28;20031;-81
2021/05/19 02:57:21;;;;;;;3.45;1.20;;;8.50;99.90;;;;;;21107026;28;19967;-81
2021/05/19 03:07:21;;;;;;;6.23;1.60;;;8.60;99.90;;;;;;21110657;28;20482;-79
2021/05/19 03:17:22;;;;;;;2.83;1.63;;;8.60;99.90;;;;;;21110678;28;20078;-81
2021/05/19 03:27:23;;;;;;;1.53;1.17;;;8.50;99.90;;;;;;21111907;28;20028;-80
2021/05/19 03:37:24;;;;;;;4.97;1.30;;;8.50;99.90;;;;;;21131043;28;20042;-81
2021/05/19 03:47:26;;;;;;;4.63;1.40;;;8.40;99.90;;;;;;21190284;28;20032;-79
2021/05/19 03:57:27;;;;;;;2.80;1.27;;;8.40;99.90;;;;;;21200100;28;20089;-81
2021/05/19 04:07:27;;;;;;;3.53;1.50;;;8.40;99.90;;;;;;21170403;28;20110;-76
2021/05/19 04:17:28;;;;;;;7.07;1.30;;;8.30;99.90;;;;;;21158411;28;20031;-76
2021/05/19 04:27:29;;;;;;;2.23;1.23;;;8.40;99.90;;;;;;21159993;28;20028;-76
2021/05/19 04:37:30;;;;;;;2.33;1.20;;;8.40;99.90;;;;;;21157968;28;20034;-76
2021/05/19 04:47:31;;;;;;;4.10;1.83;;;8.60;99.90;;;;;;21121192;28;20509;-76
2021/05/19 04:57:33;;;;;;;5.07;1.63;;;8.60;99.90;;;;;;21073646;28;20171;-76
2021/05/19 05:07:35;;;;;;;3.75;1.65;;;8.60;99.90;;;;;;21090301;28;20059;-76
2021/05/19 05:17:35;;;;;;;;;;;8.60;99.90;;;;;;21123823;28;20497;-77
2021/05/19 05:27:36;;;;;;;6.23;1.70;;;8.70;99.90;;;;;;21094497;28;19921;-76
2021/05/19 05:37:37;;;;;;;6.60;2.43;;;8.80;99.90;;;;;;21087252;28;20270;-75
2021/05/19 05:47:38;;;;;;;8.07;1.70;;;8.80;99.90;;;;;;21083123;28;20028;-75
2021/05/19 05:57:39;;;;;;;5.67;1.57;;;9.00;99.90;;;;;;21085284;28;20077;-75
2021/05/19 06:07:40;;;;;;;4.03;1.40;;;9.50;99.90;;;;;;21081829;28;20506;-75
2021/05/19 06:17:41;;;;;;;2.40;1.60;;;9.80;99.90;;;;;;21102754;28;20554;-76
2021/05/19 06:27:43;;;;;;;4.40;1.60;;;9.90;99.90;;;;;;21081509;28;20036;-76
2021/05/19 06:37:44;;;;;;;6.57;1.52;;;10.20;99.90;;;;;;21080437;28;20494;-75
2021/05/19 06:47:45;;;;;;;3.50;1.67;;;10.20;99.90;;;;;;21055551;28;20024;-75
2021/05/19 06:57:46;;;;;;;4.50;1.40;;;10.00;99.90;;;;;;21080224;28;20124;-76
2021/05/19 07:07:47;;;;;;;3.23;1.70;;;10.10;99.90;;;;;;21078374;28;20494;-76
2021/05/19 07:17:48;;;;;;;12.77;2.23;;;10.30;99.90;;;;;;21136144;28;20038;-76
2021/05/19 07:27:48;;;;;;;4.37;1.57;;;10.40;99.90;;;;;;21166693;28;20035;-76
2021/05/19 07:37:49;;;;;;;1.87;1.50;;;10.40;99.90;;;;;;21096538;28;20028;-76
2021/05/19 07:47:50;;;;;;;3.50;1.90;;;10.40;99.90;;;;;;21074774;28;20028;-76
2021/05/19 08:08:01;;;;;;;7.60;2.05;;;10.30;99.90;;;;;;21071436;28;20451;-77
2021/05/19 08:18:06;;;;;;;12.87;4.80;;;10.40;99.90;;;;;;21058789;28;20024;-78
2021/05/19 08:28:07;;;;;;;8.98;3.70;;;10.40;99.90;;;;;;21073866;28;20039;-77
2021/05/19 08:38:09;;;;;;;6.67;2.20;;;10.40;99.90;;;;;;21072317;28;20035;-76
2021/05/19 08:48:10;;;;;;;4.67;1.80;;;10.70;99.90;;;;;;21070009;28;20093;-77
2021/05/19 08:58:10;;;;;;;10.83;1.87;;;10.50;99.90;;;;;;21069922;28;20028;-77
2021/05/19 09:08:17;;;;;;;4.03;1.73;;;11.20;99.90;;;;;;21086418;28;20067;-77
2021/05/19 09:18:18;;;;;;;3.08;1.33;;;12.10;99.90;;;;;;21095962;28;20036;-76
2021/05/19 09:28:24;;;;;;;2.67;1.53;;;11.80;99.90;;;;;;21088662;28;20467;-77
2021/05/19 09:38:29;;;;;;;6.72;1.88;;;13.20;99.90;;;;;;21088641;28;20448;-78
2021/05/19 09:48:30;;;;;;;3.05;1.40;;;13.00;99.90;;;;;;21072500;28;20509;-75
2021/05/19 09:58:40;;;;;;;4.10;0.90;;;12.10;99.90;;;;;;21088485;28;20032;-78
2021/05/19 10:08:42;;;;;;;3.83;0.95;;;12.70;99.90;;;;;;21043296;28;20064;-77
2021/05/19 10:18:54;;;;;;;2.23;0.87;;;14.50;99.90;;;;;;21072256;28;20073;-75
2021/05/19 10:28:54;;;;;;;1.52;0.77;;;15.40;99.90;;;;;;21080425;28;20024;-77
2021/05/19 10:39:10;;;;;;;2.23;1.00;;;14.90;99.90;;;;;;21051218;28;20104;-76
2021/05/19 10:49:12;;;;;;;1.45;0.70;;;15.10;99.90;;;;;;21101585;28;20534;-77
2021/05/19 10:59:12;;;;;;;2.23;0.57;;;15.10;99.90;;;;;;21096183;28;20047;-77
2021/05/19 11:09:43;;;;;;;1.37;0.50;;;15.50;99.90;;;;;;21085268;28;20388;-79
2021/05/19 11:19:44;;;;;;;0.90;0.40;;;15.90;99.90;;;;;;21089351;28;20032;-77
2021/05/19 11:29:46;;;;;;;3.10;0.83;;;16.10;99.90;;;;;;21086828;28;20024;-78
2021/05/19 11:39:53;;;;;;;3.55;0.80;;;16.10;99.90;;;;;;21080674;28;20024;-78
2021/05/19 11:50:16;;;;;;;2.67;0.77;;;16.40;99.90;;;;;;21086126;28;20035;-79
2021/05/19 12:00:31;;;;;;;2.22;0.80;;;16.90;99.90;;;;;;21093227;28;20036;-77
2021/05/19 12:10:33;;;;;;;3.17;0.50;;;16.40;99.90;;;;;;21089823;28;20027;-78
2021/05/19 12:20:37;;;;;;;2.17;0.57;;;15.60;99.90;;;;;;21147179;28;20558;-77
2021/05/19 12:30:47;;;;;;;2.17;0.55;;;14.00;99.90;;;;;;21166200;28;20401;-76
2021/05/19 12:40:49;;;;;;;3.00;0.70;;;13.30;99.90;;;;;;21159095;28;20027;-77
2021/05/19 12:50:50;;;;;;;1.83;0.60;;;12.50;99.90;;;;;;21093289;28;20039;-76
2021/05/19 13:00:56;;;;;;;1.00;0.50;;;12.60;99.90;;;;;;21054206;28;20383;-77
2021/05/19 13:10:58;;;;;;;1.45;0.68;;;13.90;99.90;;;;;;21036529;28;20034;-77
2021/05/19 13:21:16;;;;;;;1.10;0.30;;;13.70;99.90;;;;;;21060330;28;20038;-78
2021/05/19 13:31:21;;;;;;;1.08;0.60;;;15.90;99.90;;;;;;21050926;28;20051;-77
2021/05/19 13:41:23;;;;;;;2.92;0.50;;;15.30;99.90;;;;;;21049541;28;20502;-76
2021/05/19 13:51:23;;;;;;;2.47;0.50;;;14.80;99.90;;;;;;21041591;28;20040;-76
2021/05/19 14:01:24;;;;;;;2.93;0.67;;;14.70;99.90;;;;;;21075320;28;20688;-76
2021/05/19 14:11:29;;;;;;;9.17;3.03;;;14.50;99.90;;;;;;21086189;28;20046;-76
2021/05/19 14:31:49;;;;;;;1.65;0.70;;;14.30;99.90;;;;;;21065024;28;20073;-76
2021/05/19 15:13:51;;;;;;;2.13;0.57;;;14.20;99.90;;;;;;21092542;28;20035;-76
2021/05/19 15:23:52;;;;;;;3.65;0.90;;;13.80;99.90;;;;;;21148908;28;20031;-76
2021/05/19 15:33:53;;;;;;;3.50;0.60;;;14.30;99.90;;;;;;21064028;28;20040;-76
2021/05/19 15:43:54;;;;;;;1.30;0.60;;;13.80;99.90;;;;;;21063777;28;20531;-77
2021/05/19 15:53:57;;;;;;;2.67;0.70;;;13.20;99.90;;;;;;21058657;28;20040;-76
2021/05/19 16:03:59;;;;;;;2.63;0.60;;;12.50;99.90;;;;;;21039305;28;20035;-77
2021/05/19 16:14:00;;;;;;;0.90;0.40;;;11.70;99.90;;;;;;21060684;28;20032;-77
2021/05/19 16:24:04;;;;;;;0.67;0.40;;;12.10;99.90;;;;;;20994027;28;20067;-76
2021/05/19 16:34:17;;;;;;;2.72;0.40;;;12.10;99.90;;;;;;21006237;28;20101;-77
2021/05/19 16:44:18;;;;;;;1.77;0.80;;;12.30;99.90;;;;;;21018675;28;20028;-76
2021/05/19 16:54:22;;;;;;;4.57;0.67;;;11.70;99.90;;;;;;21059997;28;20112;-76
2021/05/19 17:05:08;;;;;;;3.10;1.20;;;11.00;99.90;;;;;;21070928;28;20042;-77
2021/05/19 17:14:50;;;;;;;0.73;0.60;;;10.90;99.90;;;;;;21054149;28;20043;-79
2021/05/19 17:24:50;;;;;;;1.70;0.70;;;11.10;99.90;;;;;;21110795;28;20034;-79
2021/05/19 17:34:51;;;;;;;2.03;0.70;;;11.30;99.90;;;;;;21132628;28;20040;-80
2021/05/19 17:44:52;;;;;;;2.57;0.73;;;11.20;99.90;;;;;;21087785;28;20457;-80
2021/05/19 17:54:53;;;;;;;1.77;0.60;;;11.50;99.90;;;;;;21127715;28;20032;-77
2021/05/19 18:04:54;;;;;;;1.20;0.40;;;11.20;99.90;;;;;;21062488;28;20127;-78
2021/05/19 18:14:55;;;;;;;0.80;0.50;;;11.10;99.90;;;;;;21075782;28;20043;-80
2021/05/19 18:24:56;;;;;;;3.03;0.97;;;11.00;99.90;;;;;;21089498;28;20050;-79
2021/05/19 18:45:04;;;;;;;2.10;0.90;;;10.60;99.90;;;;;;21078605;28;20030;-78
2021/05/19 18:55:06;;;;;;;3.33;1.53;;;10.50;99.90;;;;;;21102713;28;20046;-78
2021/05/19 19:05:08;;;;;;;0.98;0.60;;;10.30;99.90;;;;;;21120897;28;20036;-80
2021/05/19 19:15:09;;;;;;;4.45;0.95;;;9.90;99.90;;;;;;21116434;28;20036;-82
2021/05/19 19:25:11;;;;;;;3.47;1.03;;;9.50;99.90;;;;;;21092236;28;20043;-82
2021/05/19 19:35:12;;;;;;;2.73;0.60;;;9.60;99.90;;;;;;21092072;28;20024;-81
2021/05/19 19:45:14;;;;;;;4.13;1.10;;;9.60;99.90;;;;;;21118262;28;20107;-78
2021/05/19 19:55:15;;;;;;;3.00;0.67;;;9.50;99.90;;;;;;21109585;28;20078;-78
2021/05/19 20:05:16;;;;;;;2.27;0.93;;;9.40;99.90;;;;;;21129523;28;20286;-80
2021/05/19 20:15:18;;;;;;;2.30;1.00;;;9.40;99.90;;;;;;21134148;28;20032;-80
2021/05/19 20:25:19;;;;;;;5.00;0.98;;;9.40;99.90;;;;;;21098422;28;20024;-80
2021/05/19 20:35:19;;;;;;;1.40;0.90;;;9.50;99.90;;;;;;21191629;28;20060;-79
2021/05/19 20:45:20;;;;;;;1.30;1.10;;;9.40;99.90;;;;;;21227570;28;20420;-79
2021/05/19 20:55:21;;;;;;;2.00;1.07;;;9.40;99.90;;;;;;21228359;28;20073;-79
2021/05/19 21:05:22;;;;;;;3.57;1.27;;;9.30;99.90;;;;;;21195641;28;20066;-80
2021/05/19 21:15:23;;;;;;;5.43;1.07;;;9.20;99.90;;;;;;21233810;28;20092;-80
2021/05/19 21:25:24;;;;;;;4.93;1.10;;;9.10;99.90;;;;;;21221350;28;20040;-79
2021/05/19 21:35:25;;;;;;;2.40;1.20;;;9.00;99.90;;;;;;21222362;28;20057;-80
2021/05/19 21:45:26;;;;;;;2.33;1.50;;;9.10;99.90;;;;;;21204854;28;20038;-78
2021/05/19 21:55:27;;;;;;;4.15;1.30;;;8.90;99.90;;;;;;21206940;28;20051;-79
2021/05/19 22:05:28;;;;;;;4.43;1.40;;;8.90;99.90;;;;;;21188820;28;20104;-79
2021/05/19 22:15:29;;;;;;;3.87;1.67;;;8.80;99.90;;;;;;21237621;28;20028;-80
2021/05/19 22:35:53;;;;;;;3.92;1.70;;;8.70;99.90;;;;;;21228049;28;20035;-79
2021/05/19 22:45:54;;;;;;;4.70;1.80;;;8.50;99.90;;;;;;21222661;28;20035;-79
2021/05/19 22:55:56;;;;;;;2.67;1.90;;;8.50;99.90;;;;;;21188744;28;20074;-78
2021/05/19 23:05:56;;;;;;;;;;;8.40;99.90;;;;;;21182505;22;20118;-77
2021/05/19 23:15:57;;;;;;;3.33;1.85;;;8.40;99.90;;;;;;21083754;28;19958;-78
2021/05/19 23:25:58;;;;;;;3.07;2.00;;;8.30;99.90;;;;;;21085692;28;20509;-78
2021/05/19 23:35:59;;;;;;;3.20;1.80;;;8.20;99.90;;;;;;21084615;28;20110;-78
2021/05/19 23:46:00;;;;;;;4.50;1.53;;;8.10;99.90;;;;;;21085617;28;20470;-77
2021/05/19 23:56:01;;;;;;;4.07;1.63;;;8.10;99.90;;;;;;21083813;28;20409;-78
